Time;durP1;ratioP1;P1;durP2;ratioP2;P2;SDS_P1;SDS_P2;PMS_P1;PMS_P2;Temp;Humidity;BMP_temperature;BMP_pressure;BME280_temperature;BME280_humidity;BME280_pressure;Samples;Min_cycle;Max_cycle;Signal;HPM_P1;HPM_P2
2022/01/22 00:08:18;;;;;;;16.12;5.95;;;4.30;99.90;;;;;;6753101;88;20197;-76
2022/01/22 00:18:19;;;;;;;14.98;6.03;;;4.30;99.90;;;;;;6749984;88;20617;-77
2022/01/22 00:28:19;;;;;;;16.95;5.72;;;4.30;99.90;;;;;;6754353;88;21056;-77
2022/01/22 00:38:20;;;;;;;15.07;6.10;;;4.30;99.90;;;;;;6742630;88;20271;-76
2022/01/22 00:48:20;;;;;;;17.00;6.50;;;4.30;99.90;;;;;;6736330;88;20559;-76
2022/01/22 00:58:21;;;;;;;17.30;6.57;;;4.20;99.90;;;;;;6737152;88;20233;-77
2022/01/22 01:08:21;;;;;;;14.20;6.85;;;4.30;99.90;;;;;;6737362;88;20357;-77
2022/01/22 01:39:03;;;;;;;18.20;8.00;;;4.20;99.90;;;;;;6742415;88;20604;-77
2022/01/22 01:49:04;;;;;;;21.12;8.60;;;4.20;99.90;;;;;;6740840;88;20729;-77
2022/01/22 01:59:05;;;;;;;23.05;9.15;;;4.10;99.90;;;;;;6741281;88;20192;-77
2022/01/22 02:09:08;;;;;;;21.35;9.70;;;4.10;99.90;;;;;;6741812;88;20208;-76
2022/01/22 02:29:32;;;;;;;22.87;10.30;;;4.10;99.90;;;;;;6740399;88;20608;-75
2022/01/22 02:49:53;;;;;;;21.80;11.02;;;4.10;99.90;;;;;;6734089;88;20520;-75
2022/01/22 02:59:54;;;;;;;27.30;11.10;;;4.10;99.90;;;;;;6741107;88;20664;-75
2022/01/22 03:10:00;;;;;;;22.75;10.93;;;4.10;99.90;;;;;;6755447;88;20626;-76
2022/01/22 03:30:27;;;;;;;24.03;12.60;;;4.10;99.90;;;;;;6745477;88;20785;-76
2022/01/22 03:40:29;;;;;;;21.35;11.00;;;4.10;99.90;;;;;;6751551;88;20560;-76
2022/01/22 03:50:29;;;;;;;27.37;14.07;;;4.20;99.90;;;;;;6752088;88;20195;-75
2022/01/22 04:00:30;;;;;;;31.33;15.57;;;4.10;99.90;;;;;;6755891;88;20224;-75
2022/01/22 04:10:30;;;;;;;33.15;16.27;;;4.10;99.90;;;;;;6755364;88;20196;-76
2022/01/22 04:30:50;;;;;;;43.25;16.87;;;4.10;99.90;;;;;;6753483;88;20195;-75
2022/01/22 04:40:50;;;;;;;38.58;16.02;;;4.20;99.90;;;;;;6754747;87;20200;-75
2022/01/22 05:01:10;;;;;;;36.63;17.70;;;4.20;99.90;;;;;;6740584;88;20190;-74
2022/01/22 05:11:11;;;;;;;39.53;17.02;;;4.10;99.90;;;;;;6723311;88;20273;-74
2022/01/22 05:21:15;;;;;;;35.83;17.67;;;4.20;99.90;;;;;;6726851;88;20213;-73
2022/01/22 05:31:37;;;;;;;35.05;16.73;;;4.20;99.90;;;;;;6722196;88;20195;-73
2022/01/22 05:41:40;;;;;;;38.10;18.37;;;4.20;99.90;;;;;;6722360;88;20688;-75
2022/01/22 05:51:43;;;;;;;37.20;16.33;;;4.30;99.90;;;;;;6723705;88;20191;-75
2022/01/22 06:01:44;;;;;;;38.42;17.30;;;4.40;99.90;;;;;;6729313;88;20311;-74
2022/01/22 06:21:54;;;;;;;36.65;17.30;;;4.40;99.90;;;;;;6726930;88;20169;-73
2022/01/22 06:31:54;;;;;;;39.22;18.02;;;4.40;99.90;;;;;;6733477;88;20185;-75
2022/01/22 06:41:55;;;;;;;36.40;16.67;;;4.40;99.90;;;;;;6733921;88;20194;-74
2022/01/22 06:51:55;;;;;;;37.95;16.98;;;4.40;99.90;;;;;;6732980;88;20196;-74
2022/01/22 07:01:56;;;;;;;33.22;16.50;;;4.50;99.90;;;;;;6731558;88;20597;-74
2022/01/22 07:11:57;;;;;;;33.55;16.33;;;4.50;99.90;;;;;;6731143;88;20204;-73
2022/01/22 07:22:09;;;;;;;32.25;16.70;;;4.60;99.90;;;;;;6730374;88;20225;-74
2022/01/22 07:32:17;;;;;;;38.35;18.45;;;4.60;99.90;;;;;;6723759;88;20229;-74
2022/01/22 07:42:18;;;;;;;37.75;18.25;;;4.60;99.90;;;;;;6718937;88;20224;-73
2022/01/22 07:52:18;;;;;;;41.67;18.62;;;4.60;99.90;;;;;;6731713;88;20223;-76
2022/01/22 08:02:19;;;;;;;40.67;19.00;;;4.60;99.90;;;;;;6726443;88;20205;-74
2022/01/22 08:12:19;;;;;;;47.05;19.75;;;4.70;99.90;;;;;;6734695;88;20274;-76
2022/01/22 08:22:20;;;;;;;45.17;19.45;;;4.70;99.90;;;;;;6732633;88;20245;-75
2022/01/22 08:32:56;;;;;;;37.80;19.60;;;4.80;99.90;;;;;;6727095;88;20228;-76
2022/01/22 08:42:50;;;;;;;36.58;18.20;;;4.90;99.90;;;;;;6721179;88;20243;-76
2022/01/22 08:52:51;;;;;;;37.40;16.73;;;5.00;99.90;;;;;;6718190;88;20579;-75
2022/01/22 09:02:51;;;;;;;35.42;17.15;;;5.20;99.90;;;;;;6721377;88;20357;-75
2022/01/22 09:12:52;;;;;;;34.97;16.83;;;5.30;99.90;;;;;;6721279;88;20236;-74
2022/01/22 09:22:53;;;;;;;36.40;17.00;;;5.40;99.90;;;;;;6715222;88;20182;-73
2022/01/22 09:32:54;;;;;;;33.63;16.25;;;5.50;99.90;;;;;;6724065;88;20246;-74
2022/01/22 09:42:56;;;;;;;32.50;15.57;;;5.60;99.90;;;;;;6715577;88;20216;-73
2022/01/22 09:52:56;;;;;;;35.38;17.20;;;5.70;99.90;;;;;;6722862;88;20608;-74
2022/01/22 10:02:58;;;;;;;32.03;16.15;;;5.90;99.90;;;;;;6726116;88;20203;-73
2022/01/22 10:12:59;;;;;;;30.45;16.02;;;6.00;99.90;;;;;;6734393;88;20302;-73
2022/01/22 10:23:19;;;;;;;31.08;14.23;;;6.30;99.90;;;;;;6725176;88;20247;-74
2022/01/22 10:33:30;;;;;;;27.27;13.30;;;6.40;99.90;;;;;;6721800;88;20656;-73
2022/01/22 10:43:32;;;;;;;21.87;11.52;;;6.40;99.90;;;;;;6733205;88;20203;-75
2022/01/22 10:53:48;;;;;;;22.60;10.38;;;7.30;99.90;;;;;;6740541;76;20368;-75
2022/01/22 11:04:06;;;;;;;23.57;11.13;;;7.40;99.90;;;;;;6748382;88;20205;-74
2022/01/22 11:14:08;;;;;;;20.27;10.02;;;6.90;99.90;;;;;;6745613;88;20703;-75
2022/01/22 11:24:10;;;;;;;23.25;12.07;;;6.60;99.90;;;;;;6747858;88;20225;-76
2022/01/22 11:34:15;;;;;;;23.00;11.55;;;6.80;99.90;;;;;;6752069;88;20221;-75
2022/01/22 11:44:36;;;;;;;23.90;12.73;;;6.70;99.90;;;;;;6750283;88;20201;-75
2022/01/22 11:54:50;;;;;;;26.87;13.13;;;6.50;99.90;;;;;;6747477;88;20326;-75
2022/01/22 12:05:01;;;;;;;25.80;12.95;;;6.50;99.90;;;;;;6746892;88;20216;-75
2022/01/22 12:15:01;;;;;;;27.45;12.45;;;6.40;99.90;;;;;;6745826;88;20246;-75
2022/01/22 12:25:14;;;;;;;23.92;12.07;;;6.40;99.90;;;;;;6747786;88;20763;-76
2022/01/22 12:35:32;;;;;;;22.37;11.45;;;6.60;99.90;;;;;;6738837;87;20201;-75
2022/01/22 12:45:35;;;;;;;22.67;11.12;;;6.50;99.90;;;;;;6742168;88;20202;-75
2022/01/22 12:56:47;;;;;;;25.58;12.13;;;6.50;99.90;;;;;;6745235;88;20330;-75
2022/01/22 13:05:59;;;;;;;24.42;11.88;;;6.30;99.90;;;;;;6745518;88;20661;-74
2022/01/22 13:16:11;;;;;;;28.00;12.68;;;6.20;99.90;;;;;;6752045;88;20284;-75
2022/01/22 13:26:12;;;;;;;30.80;13.73;;;6.10;99.90;;;;;;6744871;88;20654;-75
2022/01/22 13:56:55;;;;;;;32.17;14.45;;;6.00;99.90;;;;;;6743444;88;20213;-75
2022/01/22 14:06:56;;;;;;;32.13;14.93;;;6.10;99.90;;;;;;6742334;88;20212;-75
2022/01/22 14:17:12;;;;;;;30.45;13.93;;;6.00;99.90;;;;;;6746887;88;20192;-74
2022/01/22 14:27:19;;;;;;;32.20;15.23;;;6.00;99.90;;;;;;6743821;88;20192;-75
2022/01/22 14:37:30;;;;;;;34.55;16.12;;;6.00;99.90;;;;;;6744033;88;20200;-74
2022/01/22 14:47:31;;;;;;;31.87;16.00;;;6.00;99.90;;;;;;6749223;88;20193;-75
2022/01/22 14:57:38;;;;;;;38.28;16.73;;;6.00;99.90;;;;;;6747812;88;20255;-74
2022/01/22 15:07:39;;;;;;;36.25;17.00;;;6.00;99.90;;;;;;6744555;88;20161;-74
2022/01/22 15:18:08;;;;;;;34.97;17.85;;;6.00;99.90;;;;;;6746614;88;20196;-76
2022/01/22 15:28:03;;;;;;;38.95;17.95;;;5.90;99.90;;;;;;6747986;88;20654;-76
2022/01/22 15:38:04;;;;;;;39.83;19.08;;;6.00;99.90;;;;;;6746963;88;20350;-77
2022/01/22 15:48:06;;;;;;;44.92;20.77;;;6.00;99.90;;;;;;6747449;88;20242;-74
2022/01/22 15:58:06;;;;;;;43.03;21.40;;;5.90;99.90;;;;;;6744434;88;20242;-76
2022/01/22 16:08:07;;;;;;;46.30;22.60;;;5.90;99.90;;;;;;6751142;88;20196;-75
2022/01/22 16:18:07;;;;;;;47.22;22.83;;;5.80;99.90;;;;;;6753523;88;20505;-75
2022/01/22 16:28:08;;;;;;;47.72;22.80;;;5.80;99.90;;;;;;6747435;88;20707;-76
2022/01/22 16:38:08;;;;;;;49.83;22.20;;;5.70;99.90;;;;;;6743032;88;20184;-76
2022/01/22 16:58:33;;;;;;;48.25;23.05;;;5.80;99.90;;;;;;6775979;77;20535;-78
2022/01/22 17:08:38;;;;;;;50.25;21.80;;;5.70;99.90;;;;;;6762030;87;20231;-76
2022/01/22 17:18:38;;;;;;;44.58;20.58;;;5.60;99.90;;;;;;6763562;87;20200;-77
2022/01/22 17:28:39;;;;;;;48.22;20.92;;;5.60;99.90;;;;;;6769766;87;20230;-77
2022/01/22 17:38:40;;;;;;;48.22;21.37;;;5.60;99.90;;;;;;6772390;87;20226;-79
2022/01/22 17:48:43;;;;;;;50.25;22.23;;;5.50;99.90;;;;;;6774649;87;20281;-78
2022/01/22 17:58:45;;;;;;;49.90;22.55;;;5.50;99.90;;;;;;6777639;87;20175;-78
2022/01/22 18:08:46;;;;;;;53.13;22.73;;;5.40;99.90;;;;;;6787965;87;20201;-76
2022/01/22 18:18:46;;;;;;;55.45;25.20;;;5.40;99.90;;;;;;6777672;87;20216;-78
2022/01/22 18:28:47;;;;;;;56.75;25.15;;;5.40;99.90;;;;;;6772964;87;20233;-77
2022/01/22 18:38:47;;;;;;;59.05;25.85;;;5.40;99.90;;;;;;6773440;87;20188;-77
2022/01/22 18:48:48;;;;;;;58.97;25.92;;;5.40;99.90;;;;;;6774745;87;20294;-77
2022/01/22 18:58:48;;;;;;;54.65;24.60;;;5.40;99.90;;;;;;6775515;87;20238;-77
2022/01/22 19:08:49;;;;;;;55.30;23.90;;;5.40;99.90;;;;;;6769147;87;20198;-78
2022/01/22 19:18:50;;;;;;;55.33;24.55;;;5.40;99.90;;;;;;6771815;87;20541;-79
2022/01/22 19:28:50;;;;;;;53.40;23.70;;;5.30;99.90;;;;;;6771810;87;20195;-77
2022/01/22 19:38:51;;;;;;;57.62;24.65;;;5.30;99.90;;;;;;6773708;87;20766;-78
2022/01/22 19:48:51;;;;;;;61.92;24.12;;;5.30;99.90;;;;;;6774340;87;20195;-79
2022/01/22 19:58:52;;;;;;;65.45;26.12;;;5.40;99.90;;;;;;6772450;87;20663;-77
2022/01/22 20:08:53;;;;;;;62.95;25.40;;;5.40;99.90;;;;;;6770607;87;20191;-77
2022/01/22 20:18:54;;;;;;;57.62;24.02;;;5.50;99.90;;;;;;6754082;88;20191;-78
2022/01/22 20:28:54;;;;;;;58.87;24.45;;;5.40;99.90;;;;;;6754540;87;20213;-78
2022/01/22 20:38:55;;;;;;;58.42;24.40;;;5.40;99.90;;;;;;6756528;88;20199;-77
2022/01/22 20:48:56;;;;;;;56.17;24.33;;;5.30;99.90;;;;;;6756651;88;20195;-77
2022/01/22 20:58:56;;;;;;;51.60;22.42;;;5.30;99.90;;;;;;6756145;88;20195;-77
2022/01/22 21:08:57;;;;;;;58.08;24.10;;;5.30;99.90;;;;;;6756281;88;20176;-78
2022/01/22 21:19:00;;;;;;;56.72;24.50;;;5.30;99.90;;;;;;6755929;88;20993;-78
2022/01/22 21:29:00;;;;;;;59.17;25.45;;;5.30;99.90;;;;;;6755987;87;20214;-78
2022/01/22 21:49:03;;;;;;;55.80;24.30;;;5.30;99.90;;;;;;6761882;87;20220;-77
2022/01/22 21:59:03;;;;;;;59.08;24.98;;;5.30;99.90;;;;;;6762185;87;20700;-77
2022/01/22 22:09:05;;;;;;;54.13;23.15;;;5.20;99.90;;;;;;6757047;87;20222;-77
2022/01/22 22:19:05;;;;;;;55.92;23.87;;;5.20;99.90;;;;;;6755864;87;20309;-77
2022/01/22 22:29:06;;;;;;;54.20;22.08;;;5.30;99.90;;;;;;6758670;87;20214;-77
2022/01/22 22:39:07;;;;;;;51.03;21.60;;;5.30;99.90;;;;;;6756941;87;20188;-77
2022/01/22 22:49:07;;;;;;;56.37;22.25;;;5.40;99.90;;;;;;6755767;87;20587;-77
2022/01/22 22:59:08;;;;;;;50.88;22.27;;;5.30;99.90;;;;;;6755909;87;20989;-77
2022/01/22 23:09:08;;;;;;;50.05;21.95;;;5.30;99.90;;;;;;6756368;88;20639;-78
2022/01/22 23:29:28;;;;;;;52.92;21.67;;;5.30;99.90;;;;;;6756119;87;20152;-77
